Time;durP1;ratioP1;P1;durP2;ratioP2;P2;SDS_P1;SDS_P2;PMS_P1;PMS_P2;Temp;Humidity;BMP_temperature;BMP_pressure;BME280_temperature;BME280_humidity;BME280_pressure;Samples;Min_cycle;Max_cycle;Signal;HPM_P1;HPM_P2
2020/12/27 00:00:31;;;;;;;3.10;2.20;;;;;;;0.58;59.34;95619.28;5070364;28;20197;-76
2020/12/27 00:02:57;;;;;;;3.73;2.50;;;;;;;0.47;59.61;95615.97;5070191;28;20193;-76
2020/12/27 00:05:23;;;;;;;2.80;2.50;;;;;;;0.41;59.70;95612.16;5070113;28;20238;-77
2020/12/27 00:07:50;;;;;;;2.50;2.27;;;;;;;0.44;59.96;95604.31;5070298;28;20352;-78
2020/12/27 00:10:16;;;;;;;4.10;2.50;;;;;;;0.40;60.15;95597.88;5070325;28;20229;-76
2020/12/27 00:12:42;;;;;;;3.03;2.60;;;;;;;0.36;59.95;95593.16;5070209;28;20193;-76
2020/12/27 00:15:08;;;;;;;3.33;2.87;;;;;;;0.24;60.51;95590.59;5070238;28;20232;-76
2020/12/27 00:17:33;;;;;;;3.70;2.50;;;;;;;0.16;60.66;95584.50;5070511;28;20197;-76
2020/12/27 00:19:59;;;;;;;5.07;2.90;;;;;;;0.16;60.25;95574.41;5070721;28;20197;-76
2020/12/27 00:22:25;;;;;;;2.73;2.20;;;;;;;0.14;60.28;95563.56;5070104;28;20861;-76
2020/12/27 00:24:52;;;;;;;2.57;2.33;;;;;;;0.13;60.37;95570.34;5069996;28;20193;-76
2020/12/27 00:27:18;;;;;;;2.40;2.20;;;;;;;0.06;60.84;95555.72;5070330;28;20582;-78
2020/12/27 00:29:44;;;;;;;2.80;2.43;;;;;;;0.13;60.65;95557.69;5070222;28;20225;-76
2020/12/27 00:32:10;;;;;;;2.77;2.27;;;;;;;0.19;60.60;95552.16;5069426;28;20208;-78
2020/12/27 00:34:37;;;;;;;3.13;2.47;;;;;;;0.25;60.34;95555.97;5069415;28;20201;-76
2020/12/27 00:37:03;;;;;;;2.53;2.27;;;;;;;0.21;60.43;95550.31;5069816;28;20200;-76
2020/12/27 00:39:29;;;;;;;4.13;2.20;;;;;;;0.22;60.35;95546.06;5069999;28;20232;-76
2020/12/27 00:41:59;;;;;;;2.30;2.10;;;;;;;0.19;60.19;95538.72;5069834;28;20393;-76
2020/12/27 00:44:25;;;;;;;2.67;2.27;;;;;;;0.17;60.24;95532.97;5049537;28;20584;-76
2020/12/27 00:46:51;;;;;;;2.40;2.20;;;;;;;0.16;59.89;95534.69;5061541;28;20543;-76
2020/12/27 00:49:18;;;;;;;3.13;2.10;;;;;;;0.16;59.77;95523.75;5069831;28;20217;-76
2020/12/27 00:51:44;;;;;;;2.80;2.37;;;;;;;0.13;60.14;95527.31;5069757;28;20189;-77
2020/12/27 00:54:09;;;;;;;3.43;2.60;;;;;;;0.16;60.14;95521.22;5069444;28;20196;-76
2020/12/27 00:56:35;;;;;;;2.57;2.37;;;;;;;0.12;59.61;95525.72;5069241;28;20208;-77
2020/12/27 00:59:02;;;;;;;2.40;2.20;;;;;;;0.19;59.83;95519.25;5070075;28;20217;-76
2020/12/27 01:01:29;;;;;;;3.10;2.70;;;;;;;0.26;59.64;95519.59;5069702;28;20204;-76
2020/12/27 01:03:55;;;;;;;2.57;2.20;;;;;;;0.24;59.83;95512.13;5068918;28;20204;-74
2020/12/27 01:06:25;;;;;;;2.87;2.57;;;;;;;0.22;59.70;95508.91;5069114;28;20199;-73
2020/12/27 01:08:51;;;;;;;2.67;2.40;;;;;;;0.24;59.62;95509.59;5068790;28;20289;-74
2020/12/27 01:11:17;;;;;;;2.90;2.17;;;;;;;0.27;59.58;95511.09;5068583;28;20204;-74
2020/12/27 01:13:43;;;;;;;2.30;2.10;;;;;;;0.28;59.78;95505.13;5068784;28;20197;-74
2020/12/27 01:16:11;;;;;;;2.53;2.33;;;;;;;0.30;59.84;95505.81;5068771;28;20246;-74
2020/12/27 01:18:38;;;;;;;2.60;2.30;;;;;;;0.36;59.65;95495.22;5068893;28;20308;-73
2020/12/27 01:21:03;;;;;;;2.53;2.30;;;;;;;0.43;59.14;95496.34;5068405;28;20633;-73
2020/12/27 01:23:29;;;;;;;2.77;2.50;;;;;;;0.44;58.99;95495.44;5068604;28;20197;-74
2020/12/27 01:25:55;;;;;;;2.50;2.30;;;;;;;0.51;58.68;95495.78;5068387;28;20632;-73
2020/12/27 01:28:21;;;;;;;2.30;2.10;;;;;;;0.57;58.61;95495.31;5068279;28;20254;-73
2020/12/27 01:30:47;;;;;;;2.10;1.90;;;;;;;0.58;58.42;95490.09;5068376;28;20201;-74
2020/12/27 01:33:14;;;;;;;2.37;2.10;;;;;;;0.60;58.27;95480.66;5068218;28;20246;-75
2020/12/27 01:35:43;;;;;;;2.73;2.30;;;;;;;0.59;58.22;95470.66;5068177;28;20208;-75
2020/12/27 01:38:09;;;;;;;2.53;2.20;;;;;;;0.58;58.31;95467.31;5068118;28;20281;-73
2020/12/27 01:40:35;;;;;;;2.63;2.10;;;;;;;0.54;58.29;95463.44;5068467;28;20185;-73
2020/12/27 01:43:01;;;;;;;2.87;2.40;;;;;;;0.52;58.36;95452.59;5067984;28;20196;-72
2020/12/27 01:45:27;;;;;;;2.50;2.30;;;;;;;0.52;58.27;95456.88;5067523;28;20196;-72
2020/12/27 01:47:53;;;;;;;2.70;2.50;;;;;;;0.50;58.16;95458.72;5068266;28;20196;-74
2020/12/27 01:50:21;;;;;;;2.33;2.13;;;;;;;0.50;57.67;95453.63;5068083;28;20220;-74
2020/12/27 01:52:48;;;;;;;2.30;1.90;;;;;;;0.50;57.96;95446.84;5068076;28;20189;-74
2020/12/27 01:55:15;;;;;;;2.30;2.10;;;;;;;0.43;57.86;95437.28;5067634;28;20209;-73
2020/12/27 01:58:11;;;;;;;2.10;1.90;;;;;;;0.40;57.72;95419.81;5067112;28;20196;-74
2020/12/27 02:00:37;;;;;;;1.80;1.70;;;;;;;0.27;57.73;95407.28;5067723;28;20828;-74
2020/12/27 02:03:05;;;;;;;2.17;1.90;;;;;;;0.26;58.07;95410.75;5067901;28;20250;-73
2020/12/27 02:05:32;;;;;;;2.40;2.20;;;;;;;0.26;58.19;95409.03;5067371;28;20205;-74
2020/12/27 02:07:58;;;;;;;2.33;1.90;;;;;;;0.19;57.88;95412.94;5067829;28;20208;-74
2020/12/27 02:10:25;;;;;;;2.10;1.87;;;;;;;0.21;58.46;95400.97;5067359;28;20935;-74
2020/12/27 02:12:51;;;;;;;1.83;1.73;;;;;;;0.11;58.49;95389.16;5067591;28;20252;-75
2020/12/27 02:15:17;;;;;;;2.33;2.10;;;;;;;0.05;58.16;95380.28;5067474;28;20201;-74
2020/12/27 02:17:42;;;;;;;2.40;2.20;;;;;;;0.00;58.75;95377.34;5067345;28;20193;-73
2020/12/27 02:20:08;;;;;;;2.23;2.00;;;;;;;-0.04;58.91;95359.03;5067934;28;20193;-74
2020/12/27 02:22:35;;;;;;;2.43;2.13;;;;;;;-0.09;58.92;95352.72;5067579;28;20891;-74
2020/12/27 02:25:02;;;;;;;2.10;1.90;;;;;;;-0.07;58.82;95344.09;5067060;28;20212;-74
2020/12/27 02:27:31;;;;;;;2.10;1.90;;;;;;;-0.05;58.56;95334.66;5067691;28;20211;-74
2020/12/27 02:29:57;;;;;;;2.00;1.80;;;;;;;-0.04;58.15;95333.75;5067425;28;20760;-72
2020/12/27 02:32:23;;;;;;;2.17;1.97;;;;;;;-0.03;58.50;95326.94;5067225;28;20212;-74
2020/12/27 02:34:48;;;;;;;1.93;1.83;;;;;;;-0.11;58.58;95314.88;5066797;28;20219;-74
2020/12/27 02:37:14;;;;;;;2.27;2.00;;;;;;;-0.11;58.40;95304.75;5067907;28;20204;-74
2020/12/27 02:39:40;;;;;;;2.13;1.93;;;;;;;-0.17;58.55;95304.41;5067296;28;20214;-74
2020/12/27 02:42:07;;;;;;;1.70;1.60;;;;;;;-0.15;58.74;95303.38;5067348;28;20839;-74
2020/12/27 02:47:04;;;;;;;2.17;1.83;;;;;;;-0.11;58.29;95289.56;5067409;28;20295;-74
2020/12/27 02:49:30;;;;;;;3.23;2.07;;;;;;;-0.15;58.69;95278.09;5067073;28;20228;-74
2020/12/27 02:51:56;;;;;;;2.03;1.80;;;;;;;-0.13;58.51;95276.25;5067419;28;20562;-74
2020/12/27 02:54:22;;;;;;;2.63;1.97;;;;;;;0.00;58.21;95281.94;5066585;28;20196;-74
2020/12/27 02:56:48;;;;;;;2.03;1.83;;;;;;;0.05;58.66;95271.47;5066873;28;20579;-73
2020/12/27 02:59:14;;;;;;;2.33;2.13;;;;;;;0.07;58.30;95251.91;5066455;28;20311;-72
2020/12/27 03:01:40;;;;;;;2.17;1.93;;;;;;;0.13;58.16;95245.56;5066442;28;20203;-74
2020/12/27 03:04:06;;;;;;;1.90;1.80;;;;;;;0.13;57.63;95248.91;5067291;28;20200;-74
2020/12/27 03:06:32;;;;;;;2.30;2.10;;;;;;;0.16;58.00;95248.66;5066984;28;20197;-72
2020/12/27 03:08:58;;;;;;;2.20;1.87;;;;;;;0.13;57.81;95243.03;5068882;28;20572;-74
2020/12/27 03:11:24;;;;;;;2.53;1.90;;;;;;;0.11;57.53;95248.22;5071082;28;20208;-74
2020/12/27 03:13:51;;;;;;;2.13;1.87;;;;;;;0.17;57.88;95241.88;5070518;28;20204;-74
2020/12/27 03:16:18;;;;;;;2.20;2.00;;;;;;;0.12;57.94;95234.66;5071661;28;20238;-74
2020/12/27 03:18:44;;;;;;;2.20;1.80;;;;;;;0.20;57.92;95228.97;5070853;28;20217;-74
2020/12/27 03:21:10;;;;;;;1.80;1.70;;;;;;;0.21;57.53;95212.84;5071049;28;20212;-74
2020/12/27 03:23:36;;;;;;;2.30;2.10;;;;;;;0.24;57.88;95210.06;5070309;28;20192;-75
2020/12/27 03:26:02;;;;;;;3.30;1.87;;;;;;;0.29;57.98;95203.72;5070476;28;20196;-73
2020/12/27 03:28:27;;;;;;;2.23;2.03;;;;;;;0.36;57.53;95195.66;5071157;28;20607;-75
2020/12/27 03:30:53;;;;;;;1.90;1.80;;;;;;;0.24;58.07;95192.34;5071039;28;20204;-74
2020/12/27 03:33:20;;;;;;;2.30;1.83;;;;;;;0.21;57.83;95187.53;5070795;28;20212;-74
2020/12/27 03:35:46;;;;;;;2.20;2.00;;;;;;;0.26;58.35;95183.72;5070101;28;20193;-74
2020/12/27 03:38:14;;;;;;;2.10;1.90;;;;;;;0.27;57.90;95179.44;5070568;28;20727;-74
2020/12/27 03:40:40;;;;;;;2.60;2.03;;;;;;;0.10;58.67;95190.13;5070366;28;20196;-75
2020/12/27 03:43:06;;;;;;;2.10;1.90;;;;;;;0.08;58.12;95184.38;5070684;28;20239;-74
2020/12/27 03:45:32;;;;;;;2.80;2.20;;;;;;;0.09;57.86;95181.75;5069715;28;20656;-74
2020/12/27 03:47:58;;;;;;;2.27;2.07;;;;;;;0.09;58.19;95171.63;5070349;28;20227;-74
2020/12/27 03:50:25;;;;;;;2.53;2.20;;;;;;;0.07;58.13;95165.06;5070296;28;20574;-74
2020/12/27 03:52:51;;;;;;;2.53;2.30;;;;;;;0.00;58.36;95149.59;5070429;28;20637;-74
2020/12/27 03:55:17;;;;;;;2.37;2.17;;;;;;;-0.02;58.35;95136.25;5069340;28;20204;-74
2020/12/27 03:57:43;;;;;;;2.20;1.97;;;;;;;-0.02;58.30;95133.72;5070415;28;20204;-74
2020/12/27 04:00:09;;;;;;;2.30;2.10;;;;;;;-0.04;58.31;95125.44;5070182;28;20284;-74
2020/12/27 04:02:35;;;;;;;3.67;2.30;;;;;;;-0.09;58.46;95140.19;5070339;28;20204;-75
2020/12/27 04:05:01;;;;;;;2.23;1.90;;;;;;;-0.15;58.37;95133.88;5069871;28;20220;-74
2020/12/27 04:07:30;;;;;;;3.23;2.00;;;;;;;-0.10;58.46;95120.88;5070371;28;20197;-74
2020/12/27 04:09:56;;;;;;;2.50;2.07;;;;;;;-0.09;58.32;95108.09;5069793;28;20228;-71
2020/12/27 04:12:22;;;;;;;2.60;1.87;;;;;;;-0.21;58.98;95098.97;5070115;28;20196;-75
2020/12/27 04:14:48;;;;;;;2.20;2.00;;;;;;;-0.15;58.80;95098.47;5069734;28;20193;-74
2020/12/27 04:17:14;;;;;;;2.30;2.10;;;;;;;-0.22;58.74;95089.78;5070223;28;20193;-74
2020/12/27 04:19:39;;;;;;;2.60;2.03;;;;;;;-0.25;58.42;95084.16;5068675;28;20216;-74
2020/12/27 04:22:05;;;;;;;2.17;1.93;;;;;;;-0.27;58.54;95079.22;5070106;28;20280;-74
2020/12/27 04:24:32;;;;;;;2.10;1.80;;;;;;;-0.33;58.62;95068.78;5070010;28;20193;-74
2020/12/27 04:26:58;;;;;;;2.40;2.00;;;;;;;-0.29;58.57;95065.09;5070141;28;20197;-77
2020/12/27 04:29:24;;;;;;;2.40;2.20;;;;;;;-0.28;58.58;95056.59;5070056;28;20223;-76
2020/12/27 04:31:51;;;;;;;2.87;2.37;;;;;;;-0.22;58.75;95059.44;5070390;28;20632;-78
2020/12/27 04:34:17;;;;;;;2.20;2.00;;;;;;;-0.27;58.49;95051.41;5069503;28;20296;-75
2020/12/27 04:36:43;;;;;;;2.27;1.97;;;;;;;-0.28;58.46;95043.94;5069727;28;20200;-76
2020/12/27 04:39:09;;;;;;;2.50;2.07;;;;;;;-0.38;58.54;95041.34;5069316;28;20278;-74
2020/12/27 04:41:37;;;;;;;2.10;1.90;;;;;;;-0.32;58.60;95038.31;5069778;28;20215;-76
2020/12/27 04:44:04;;;;;;;1.90;1.80;;;;;;;-0.30;58.40;95028.09;5069128;28;20612;-75
2020/12/27 04:46:30;;;;;;;2.30;2.07;;;;;;;-0.25;58.78;95020.94;5069590;28;20297;-76
2020/12/27 04:48:57;;;;;;;3.37;2.30;;;;;;;-0.24;58.29;95020.00;5069300;28;20754;-76
2020/12/27 04:51:26;;;;;;;2.27;2.07;;;;;;;-0.31;58.54;95008.78;5069300;28;20196;-77
2020/12/27 04:53:55;;;;;;;2.30;2.00;;;;;;;-0.32;58.46;95007.19;5069199;28;20189;-76
2020/12/27 04:56:24;;;;;;;3.27;2.27;;;;;;;-0.37;58.88;94999.94;5069215;28;20236;-76
2020/12/27 04:58:53;;;;;;;2.30;2.10;;;;;;;-0.42;58.67;94992.75;5069161;28;20213;-75
2020/12/27 05:01:18;;;;;;;2.07;1.87;;;;;;;-0.44;58.33;94989.56;5069444;28;20204;-76
2020/12/27 05:03:44;;;;;;;2.33;2.13;;;;;;;-0.54;58.63;94992.94;5068692;28;20809;-75
2020/12/27 05:06:13;;;;;;;3.67;2.10;;;;;;;-0.59;58.55;94990.00;5069307;28;20201;-76
2020/12/27 05:08:39;;;;;;;2.33;1.90;;;;;;;-0.52;58.32;94988.56;5069024;28;20312;-76
2020/12/27 05:11:08;;;;;;;2.23;2.00;;;;;;;-0.53;58.64;94992.81;5068988;28;20192;-77
2020/12/27 05:13:34;;;;;;;2.63;1.90;;;;;;;-0.51;58.42;94983.38;5068828;28;20197;-75
2020/12/27 05:16:04;;;;;;;2.20;2.00;;;;;;;-0.47;58.25;94989.78;5069185;28;20220;-75
2020/12/27 05:18:31;;;;;;;2.37;1.90;;;;;;;-0.35;58.00;94985.47;5069495;28;20888;-76
2020/12/27 05:20:57;;;;;;;2.30;2.10;;;;;;;-0.33;57.45;94993.72;5068710;28;20189;-76
2020/12/27 05:23:25;;;;;;;2.10;1.90;;;;;;;-0.38;57.68;94980.66;5068938;28;20193;-76
2020/12/27 05:25:51;;;;;;;2.10;1.90;;;;;;;-0.39;57.39;94979.88;5068587;28;20710;-75
2020/12/27 05:28:18;;;;;;;2.00;1.90;;;;;;;-0.36;57.90;94977.06;5068822;28;20221;-76
2020/12/27 05:30:44;;;;;;;2.20;1.70;;;;;;;-0.32;57.39;94979.34;5067850;28;20212;-76
2020/12/27 05:33:12;;;;;;;2.03;1.83;;;;;;;-0.26;57.32;94986.44;5068651;28;20205;-77
2020/12/27 05:35:38;;;;;;;2.20;2.00;;;;;;;-0.18;57.03;94987.41;5068068;28;20691;-75
2020/12/27 05:38:05;;;;;;;1.97;1.70;;;;;;;-0.16;56.84;94989.81;5067828;28;20221;-75
2020/12/27 05:40:35;;;;;;;2.00;1.80;;;;;;;-0.15;56.81;94976.25;5068156;28;20246;-76
2020/12/27 05:43:06;;;;;;;2.07;1.87;;;;;;;-0.28;56.67;94979.00;5067948;28;20739;-77
2020/12/27 05:45:32;;;;;;;2.50;2.10;;;;;;;-0.29;56.80;94979.09;5067841;28;20204;-76
2020/12/27 05:47:59;;;;;;;2.30;2.10;;;;;;;-0.31;57.45;94963.25;5067974;28;20367;-76
2020/12/27 05:50:27;;;;;;;1.77;1.67;;;;;;;-0.33;57.30;94965.91;5067763;28;20217;-76
2020/12/27 05:52:59;;;;;;;2.20;1.83;;;;;;;-0.32;57.30;94962.47;5068308;28;20197;-75
2020/12/27 05:55:25;;;;;;;1.93;1.73;;;;;;;-0.29;57.06;94959.69;5047754;28;20668;-75
2020/12/27 05:57:53;;;;;;;1.90;1.70;;;;;;;-0.29;57.10;94943.69;5048152;28;20212;-76
2020/12/27 06:00:21;;;;;;;2.10;1.90;;;;;;;-0.36;57.16;94941.66;5067753;28;20201;-78
2020/12/27 06:02:58;;;;;;;2.17;1.77;;;;;;;-0.40;57.48;94935.28;5067985;28;20204;-75
2020/12/27 06:06:09;;;;;;;2.10;1.90;;;;;;;-0.44;57.67;94935.66;5067199;28;20223;-76
2020/12/27 06:09:09;;;;;;;1.80;1.70;;;;;;;-0.47;57.86;94931.66;5067748;28;20268;-76
2020/12/27 06:11:52;;;;;;;1.97;1.83;;;;;;;-0.41;57.62;94920.25;4985777;28;20211;-77
2020/12/27 06:14:40;;;;;;;1.70;1.50;;;;;;;-0.39;57.39;94915.84;4985267;28;20902;-76
2020/12/27 06:17:14;;;;;;;2.97;1.87;;;;;;;-0.36;57.88;94913.84;5042582;28;20200;-76
2020/12/27 06:19:56;;;;;;;3.20;1.93;;;;;;;-0.35;57.18;94912.13;5067290;28;20239;-77
2020/12/27 06:22:26;;;;;;;2.00;1.80;;;;;;;-0.39;57.73;94901.50;5067422;28;20219;-76
2020/12/27 06:24:56;;;;;;;3.23;2.00;;;;;;;-0.44;57.64;94897.72;5067611;28;20200;-74
2020/12/27 06:27:22;;;;;;;1.90;1.73;;;;;;;-0.47;57.83;94897.97;5067547;28;20197;-75
2020/12/27 06:29:51;;;;;;;2.57;2.10;;;;;;;-0.41;58.27;94900.00;5067118;28;20235;-76
2020/12/27 06:32:22;;;;;;;1.90;1.70;;;;;;;-0.40;58.23;94886.44;5067034;28;20197;-76
2020/12/27 06:34:48;;;;;;;2.40;2.20;;;;;;;-0.41;57.96;94874.72;5067342;28;20207;-76
2020/12/27 06:37:15;;;;;;;2.50;2.00;;;;;;;-0.44;57.69;94875.78;5067334;28;20196;-76
2020/12/27 06:39:45;;;;;;;2.27;1.83;;;;;;;-0.47;57.61;94872.69;5067333;28;20242;-76
2020/12/27 06:42:14;;;;;;;1.80;1.70;;;;;;;-0.54;57.75;94854.69;5067168;28;20303;-76
2020/12/27 06:44:44;;;;;;;2.03;1.83;;;;;;;-0.49;57.53;94842.47;5065942;28;20265;-76
2020/12/27 06:47:10;;;;;;;1.70;1.60;;;;;;;-0.49;57.26;94841.69;5067120;28;20200;-76
2020/12/27 06:49:37;;;;;;;2.20;2.00;;;;;;;-0.52;57.32;94837.69;5067059;28;20278;-76
2020/12/27 06:52:24;;;;;;;1.70;1.60;;;;;;;-0.60;57.20;94840.06;5067594;28;20204;-76
2020/12/27 06:54:51;;;;;;;1.70;1.60;;;;;;;-0.58;57.29;94834.88;5060061;28;20208;-76
2020/12/27 06:57:43;;;;;;;2.03;1.83;;;;;;;-0.57;57.71;94829.66;5067202;28;20193;-74
2020/12/27 07:00:19;;;;;;;2.07;1.83;;;;;;;-0.55;57.97;94824.47;5067153;28;20197;-76
2020/12/27 07:02:45;;;;;;;1.80;1.70;;;;;;;-0.55;57.75;94814.38;5066934;28;20546;-76
2020/12/27 07:05:25;;;;;;;3.40;1.60;;;;;;;-0.46;57.46;94818.69;5066726;28;20600;-76
2020/12/27 07:07:51;;;;;;;1.53;1.37;;;;;;;-0.47;57.61;94814.53;5066508;28;20566;-76
2020/12/27 07:10:17;;;;;;;1.90;1.70;;;;;;;-0.45;57.02;94821.06;5066823;28;20220;-75
2020/12/27 07:12:44;;;;;;;1.87;1.70;;;;;;;-0.44;57.40;94819.34;5066947;28;20193;-76
2020/12/27 07:15:10;;;;;;;1.63;1.50;;;;;;;-0.35;56.98;94824.41;5066964;28;20197;-75
2020/12/27 07:17:36;;;;;;;1.60;1.40;;;;;;;-0.36;57.01;94815.25;5066745;28;20691;-75
2020/12/27 07:20:15;;;;;;;1.90;1.60;;;;;;;-0.30;56.64;94813.94;5065625;28;20252;-76
2020/12/27 07:22:41;;;;;;;13.97;8.93;;;;;;;-0.31;57.20;94807.28;5066299;28;20215;-76
2020/12/27 07:25:11;;;;;;;12.17;8.03;;;;;;;-0.28;57.57;94798.63;5066042;28;20200;-75
2020/12/27 07:27:39;;;;;;;6.70;3.03;;;;;;;0.09;89.35;94799.63;5066808;28;20196;-75
2020/12/27 07:30:06;;;;;;;2.77;1.90;;;;;;;0.76;71.09;94798.00;5065279;28;20220;-75
2020/12/27 07:32:39;;;;;;;2.33;1.83;;;;;;;0.81;58.19;94795.81;5066166;28;20199;-78
2020/12/27 07:35:08;;;;;;;2.80;1.80;;;;;;;0.68;57.80;94780.94;5066142;28;20212;-77
2020/12/27 07:37:34;;;;;;;2.30;2.10;;;;;;;0.57;57.18;94770.97;5066300;28;20202;-75
2020/12/27 07:40:00;;;;;;;2.23;2.00;;;;;;;0.42;57.17;94768.03;5065723;28;20220;-77
2020/12/27 07:42:27;;;;;;;2.40;2.17;;;;;;;0.36;57.27;94750.88;5062976;28;20200;-78
2020/12/27 07:44:55;;;;;;;2.03;1.83;;;;;;;0.36;57.42;94750.06;5065864;28;20189;-76
2020/12/27 07:47:22;;;;;;;2.67;2.27;;;;;;;0.29;57.76;94740.47;5066716;28;20254;-75
2020/12/27 07:50:03;;;;;;;2.93;2.00;;;;;;;0.34;57.10;94740.88;5065823;28;20221;-77
2020/12/27 07:52:42;;;;;;;2.40;2.20;;;;;;;0.38;57.31;94740.59;5066172;28;20556;-75
2020/12/27 07:55:08;;;;;;;3.67;2.40;;;;;;;0.50;57.10;94730.19;5067942;28;20196;-76
2020/12/27 07:57:34;;;;;;;5.03;3.53;;;;;;;0.54;56.37;94728.19;5070254;28;20231;-76
2020/12/27 08:00:05;;;;;;;5.83;3.23;;;;;;;0.97;86.73;94723.38;5070327;28;20205;-77
2020/12/27 08:02:32;;;;;;;8.10;5.03;;;;;;;1.92;88.82;94704.44;5069889;28;20731;-72
2020/12/27 08:05:02;;;;;;;2.23;2.03;;;;;;;2.22;56.76;94693.09;5066741;28;20851;-75
2020/12/27 08:07:28;;;;;;;2.17;1.97;;;;;;;2.07;54.15;94686.00;5068908;28;20262;-75
2020/12/27 08:09:54;;;;;;;1.97;1.77;;;;;;;1.99;54.20;94678.31;5068906;28;20221;-76
2020/12/27 08:12:20;;;;;;;1.87;1.73;;;;;;;1.93;54.29;94671.25;5069246;28;20203;-76
2020/12/27 08:14:46;;;;;;;1.97;1.70;;;;;;;1.90;54.05;94663.16;5068363;28;20197;-76
2020/12/27 08:17:15;;;;;;;1.73;1.60;;;;;;;1.91;54.42;94652.88;5069138;28;20618;-76
2020/12/27 08:19:41;;;;;;;2.20;1.80;;;;;;;1.90;54.20;94637.78;5067958;28;20455;-76
2020/12/27 08:22:07;;;;;;;1.70;1.60;;;;;;;1.85;54.10;94643.31;5068659;28;20197;-76
2020/12/27 08:24:33;;;;;;;1.73;1.60;;;;;;;1.87;54.02;94633.00;5067678;28;20207;-75
2020/12/27 08:26:59;;;;;;;1.93;1.73;;;;;;;1.89;54.38;94633.66;5055836;28;20867;-76
2020/12/27 08:29:26;;;;;;;1.90;1.70;;;;;;;1.85;54.02;94625.53;5063972;28;20216;-76
2020/12/27 08:31:54;;;;;;;4.80;3.47;;;;;;;1.82;54.20;94612.34;5068667;28;20239;-76
2020/12/27 08:34:21;;;;;;;2.30;2.03;;;;;;;1.85;53.70;94609.50;5067614;28;20203;-75
2020/12/27 08:36:50;;;;;;;2.37;2.17;;;;;;;1.90;53.77;94602.25;5068421;28;20188;-76
2020/12/27 08:39:27;;;;;;;2.23;2.00;;;;;;;1.73;54.13;94601.34;5068282;28;20286;-77
2020/12/27 08:42:02;;;;;;;2.10;1.90;;;;;;;1.83;54.19;94607.13;5068247;28;20262;-74
2020/12/27 08:44:46;;;;;;;1.83;1.67;;;;;;;1.93;53.24;94599.41;5068361;28;20713;-76
2020/12/27 08:47:26;;;;;;;1.90;1.70;;;;;;;2.05;53.12;94596.50;5068446;28;20197;-76
2020/12/27 08:49:58;;;;;;;2.00;1.80;;;;;;;2.16;53.10;94602.25;5067723;28;20224;-75
2020/12/27 08:52:25;;;;;;;1.60;1.50;;;;;;;2.10;52.41;94597.81;5068279;28;20199;-76
2020/12/27 08:54:55;;;;;;;2.63;1.93;;;;;;;2.03;53.05;94584.91;5067923;28;20200;-75
2020/12/27 08:57:22;;;;;;;1.70;1.60;;;;;;;2.02;53.51;94575.69;5068053;28;20657;-75
2020/12/27 09:00:01;;;;;;;2.87;1.87;;;;;;;1.79;54.12;94567.75;5067785;28;20658;-74
2020/12/27 09:02:27;;;;;;;1.80;1.70;;;;;;;1.39;54.50;94569.03;5068548;28;20784;-76
2020/12/27 09:05:01;;;;;;;3.83;2.93;;;;;;;1.33;54.35;94572.16;5067855;28;20204;-76
2020/12/27 09:07:32;;;;;;;2.53;1.70;;;;;;;1.29;55.27;94563.25;5067189;28;20642;-76
2020/12/27 09:10:09;;;;;;;1.77;1.50;;;;;;;1.43;54.40;94556.88;5068061;28;20228;-76
2020/12/27 09:12:35;;;;;;;2.40;1.67;;;;;;;1.46;53.97;94555.78;5067551;28;20593;-76
2020/12/27 09:15:20;;;;;;;2.23;1.77;;;;;;;1.59;53.98;94544.31;5067331;28;20710;-76
2020/12/27 09:17:53;;;;;;;1.90;1.80;;;;;;;1.55;53.63;94532.84;5067519;28;20691;-75
2020/12/27 09:20:19;;;;;;;2.87;2.57;;;;;;;1.41;54.15;94518.16;5067481;28;20585;-78
2020/12/27 09:22:45;;;;;;;2.13;1.93;;;;;;;1.40;53.91;94526.72;5067656;28;20265;-76
2020/12/27 09:25:11;;;;;;;1.93;1.73;;;;;;;1.61;53.89;94526.41;5067020;28;20672;-75
2020/12/27 09:27:37;;;;;;;2.60;2.00;;;;;;;1.65;54.05;94522.63;5067052;28;20208;-76
2020/12/27 09:30:03;;;;;;;2.73;1.77;;;;;;;1.78;53.67;94514.63;5066810;28;20213;-76
2020/12/27 09:32:34;;;;;;;4.97;3.30;;;;;;;1.97;53.20;94514.41;5067635;28;20718;-75
2020/12/27 09:35:00;;;;;;;9.10;5.10;;;;;;;2.10;52.54;94493.72;5067130;28;20250;-74
2020/12/27 09:37:32;;;;;;;2.50;2.30;;;;;;;2.26;52.74;94483.63;5067146;28;20208;-75
2020/12/27 09:39:59;;;;;;;3.47;1.93;;;;;;;2.33;51.73;94482.84;5067082;28;20308;-81
2020/12/27 09:42:27;;;;;;;2.43;1.80;;;;;;;2.33;51.43;94479.50;5065369;28;20253;-78
2020/12/27 09:44:54;;;;;;;1.70;1.60;;;;;;;2.35;52.11;94480.16;5067963;28;20201;-77
2020/12/27 09:47:24;;;;;;;2.03;1.83;;;;;;;2.56;51.50;94462.75;5067231;28;20250;-76
2020/12/27 09:50:02;;;;;;;1.73;1.60;;;;;;;2.75;50.63;94457.41;5066963;28;20224;-80
2020/12/27 09:52:28;;;;;;;2.03;1.80;;;;;;;2.83;50.48;94458.38;5068572;28;20207;-83
2020/12/27 09:54:54;;;;;;;2.50;1.80;;;;;;;2.95;50.42;94455.34;5066116;28;20209;-78
2020/12/27 09:57:22;;;;;;;3.93;1.70;;;;;;;3.06;49.88;94447.44;5067073;28;20284;-78
2020/12/27 09:59:50;;;;;;;3.67;1.73;;;;;;;3.18;49.86;94440.28;5065882;28;20266;-78
2020/12/27 10:02:16;;;;;;;4.47;1.87;;;;;;;3.26;48.92;94431.84;5066887;28;20258;-75
2020/12/27 10:04:42;;;;;;;1.90;1.70;;;;;;;3.31;49.39;94425.31;5066628;28;20216;-78
2020/12/27 10:07:08;;;;;;;1.90;1.80;;;;;;;3.32;49.17;94416.72;5066195;28;20266;-81
2020/12/27 10:09:34;;;;;;;2.43;2.10;;;;;;;3.35;49.29;94401.16;5069624;28;20231;-83
2020/12/27 10:12:01;;;;;;;2.73;1.87;;;;;;;3.36;49.35;94386.69;5068833;28;20200;-81
2020/12/27 10:14:28;;;;;;;3.47;2.10;;;;;;;3.40;49.42;94378.56;5068562;28;20211;-81
2020/12/27 10:16:56;;;;;;;2.40;1.97;;;;;;;3.52;48.99;94373.94;5069353;28;20201;-80
2020/12/27 10:19:22;;;;;;;2.20;1.97;;;;;;;3.67;49.28;94371.50;5069160;28;20217;-81
2020/12/27 10:21:48;;;;;;;2.27;2.03;;;;;;;3.72;48.70;94356.53;5066534;28;20201;-74
2020/12/27 10:24:15;;;;;;;3.47;1.97;;;;;;;3.74;48.84;94349.53;5066619;28;20196;-79
2020/12/27 10:26:41;;;;;;;2.87;2.40;;;;;;;3.83;48.85;94332.47;5066652;28;20284;-76
2020/12/27 10:29:07;;;;;;;2.30;2.10;;;;;;;3.70;48.40;94320.25;5066561;28;20213;-79
2020/12/27 10:31:34;;;;;;;85.37;54.30;;;;;;;3.38;49.95;94308.47;5066776;28;20197;-78
2020/12/27 10:34:00;;;;;;;27.40;18.40;;;;;;;3.54;49.76;94293.13;5066962;28;20208;-75
2020/12/27 10:36:26;;;;;;;4.53;3.30;;;;;;;3.66;49.52;94285.91;5066098;28;20618;-78
2020/12/27 10:38:52;;;;;;;2.73;2.20;;;;;;;3.64;49.14;94283.56;5068424;28;20626;-83
2020/12/27 10:41:18;;;;;;;2.80;2.17;;;;;;;3.65;49.50;94284.38;5069329;28;20193;-82
2020/12/27 10:43:49;;;;;;;2.53;2.23;;;;;;;3.68;49.03;94278.91;5069184;28;20208;-84
2020/12/27 10:46:15;;;;;;;3.30;1.90;;;;;;;3.69;49.22;94268.56;5069901;28;20423;-83
2020/12/27 10:48:42;;;;;;;4.30;2.10;;;;;;;3.71;48.21;94265.88;5067942;28;20227;-75
2020/12/27 10:51:08;;;;;;;2.43;1.70;;;;;;;3.65;47.96;94247.00;5066486;28;20647;-76
2020/12/27 10:53:36;;;;;;;1.90;1.80;;;;;;;3.54;47.58;94242.25;5066159;28;20197;-76
2020/12/27 10:56:02;;;;;;;2.47;2.20;;;;;;;3.28;48.67;94236.63;5065595;28;20629;-76
2020/12/27 10:58:28;;;;;;;4.73;3.63;;;;;;;3.18;49.74;94239.38;5066580;28;20221;-76
2020/12/27 11:00:54;;;;;;;6.27;2.60;;;;;;;3.21;49.15;94246.69;5066129;28;20196;-75
2020/12/27 11:03:20;;;;;;;3.27;2.40;;;;;;;3.26;48.67;94241.91;5066604;28;20200;-74
2020/12/27 11:05:47;;;;;;;11.17;7.40;;;;;;;3.44;49.33;94237.38;5065860;28;20257;-76
2020/12/27 11:08:13;;;;;;;14.27;8.97;;;;;;;3.65;48.58;94225.84;5066517;28;20220;-75
2020/12/27 11:10:42;;;;;;;4.10;3.00;;;;;;;3.67;49.00;94229.78;5065841;28;20251;-76
2020/12/27 11:13:08;;;;;;;3.73;2.40;;;;;;;3.88;48.19;94229.16;5066247;28;20471;-75
2020/12/27 11:15:34;;;;;;;4.70;2.23;;;;;;;4.01;46.83;94221.78;5065270;28;20197;-79
2020/12/27 11:18:00;;;;;;;2.13;1.77;;;;;;;4.12;46.62;94213.72;5065861;28;20201;-78
2020/12/27 11:20:26;;;;;;;1.93;1.80;;;;;;;4.21;45.80;94214.47;5066096;28;20185;-76
2020/12/27 11:22:53;;;;;;;5.47;2.27;;;;;;;3.94;45.55;94209.88;5066698;28;20197;-75
2020/12/27 11:25:19;;;;;;;1.93;1.83;;;;;;;3.89;45.36;94201.97;5066013;28;20231;-78
2020/12/27 11:27:45;;;;;;;4.27;2.00;;;;;;;3.79;47.16;94190.25;5065822;28;20189;-79
2020/12/27 11:30:26;;;;;;;3.00;1.90;;;;;;;4.01;46.43;94175.16;5069443;28;20220;-79
2020/12/27 11:32:52;;;;;;;3.90;1.80;;;;;;;4.25;46.65;94158.88;5070073;28;20574;-78
2020/12/27 11:35:18;;;;;;;2.30;2.10;;;;;;;4.21;45.92;94142.38;5070104;28;20326;-78
2020/12/27 11:37:44;;;;;;;4.40;1.90;;;;;;;4.11;45.14;94124.78;5069889;28;20197;-78
2020/12/27 11:40:11;;;;;;;4.03;2.23;;;;;;;4.16;45.78;94120.75;5069675;28;20566;-76
2020/12/27 11:42:37;;;;;;;2.20;2.00;;;;;;;4.12;44.60;94098.34;5070234;28;20208;-78
2020/12/27 11:45:04;;;;;;;5.53;1.87;;;;;;;4.05;44.12;94084.72;5069626;28;20237;-75